createdAt,value
2023-01-15T00:01:59.740Z,97028.91
2023-01-15T00:04:26.582Z,97023.31
2023-01-15T00:06:54.621Z,97022.06
2023-01-15T00:09:21.255Z,97012.13
2023-01-15T00:11:47.903Z,97016.81
2023-01-15T00:14:14.605Z,97007.56
2023-01-15T00:16:41.300Z,97005.41
2023-01-15T00:19:12.139Z,97011.91
2023-01-15T00:21:39.188Z,97008.06
2023-01-15T00:24:24.626Z,96994.88
2023-01-15T00:27:09.609Z,96984.38
2023-01-15T00:29:36.269Z,96979.84
2023-01-15T00:32:06.057Z,96984.03
2023-01-15T00:34:33.693Z,96980.75
2023-01-15T00:37:01.305Z,96975.69
2023-01-15T00:39:28.167Z,96975.47
2023-01-15T00:41:55.811Z,96978.63
2023-01-15T00:44:22.754Z,96979.72
2023-01-15T00:46:49.503Z,96967.81
2023-01-15T00:49:16.329Z,96972.69
2023-01-15T00:51:43.021Z,96974.53
2023-01-15T00:54:09.798Z,96960.03
2023-01-15T00:56:36.928Z,96965.78
2023-01-15T00:59:04.990Z,96965.78
2023-01-15T01:01:31.835Z,96957.50
2023-01-15T01:03:58.671Z,96957.31
2023-01-15T01:06:25.384Z,96961.44
2023-01-15T01:08:52.078Z,96958.13
2023-01-15T01:11:24.006Z,96951.88
2023-01-15T01:13:50.820Z,96949.34
2023-01-15T01:16:37.491Z,96938.38
2023-01-15T01:19:10.168Z,96933.47
2023-01-15T01:21:39.154Z,96924.69
2023-01-15T01:24:07.997Z,96927.88
2023-01-15T01:26:35.303Z,96931.66
2023-01-15T01:29:02.290Z,96924.09
2023-01-15T01:31:29.017Z,96919.72
2023-01-15T01:33:57.596Z,96917.41
2023-01-15T01:36:32.919Z,96915.75
2023-01-15T01:39:00.406Z,96916.53
2023-01-15T01:41:27.631Z,96906.06
2023-01-15T01:44:05.932Z,96904.81
2023-01-15T01:46:34.855Z,96907.69
2023-01-15T01:49:08.363Z,96907.16
2023-01-15T01:51:43.344Z,96899.03
2023-01-15T01:54:12.777Z,96882.97
2023-01-15T01:56:39.913Z,96893.47
2023-01-15T01:59:07.673Z,96874.53
2023-01-15T02:01:34.649Z,96883.72
2023-01-15T02:04:02.738Z,96874.00
2023-01-15T02:06:30.378Z,96868.00
2023-01-15T02:08:57.030Z,96870.53
2023-01-15T02:11:24.688Z,96873.09
2023-01-15T02:14:40.651Z,96863.31
2023-01-15T02:17:30.736Z,96852.28
2023-01-15T02:20:21.353Z,96849.41
2023-01-15T02:23:28.477Z,96854.63
2023-01-15T02:26:32.229Z,96840.03
2023-01-15T02:29:00.531Z,96844.75
2023-01-15T02:31:38.817Z,96849.41
2023-01-15T02:34:20.142Z,96847.38
2023-01-15T02:36:50.505Z,96845.19
2023-01-15T02:39:19.899Z,96852.06
2023-01-15T02:41:52.004Z,96847.28
2023-01-15T02:44:22.818Z,96846.53
2023-01-15T02:46:50.183Z,96836.28
2023-01-15T02:49:20.973Z,96845.28
2023-01-15T02:51:58.420Z,96845.28
2023-01-15T02:54:31.091Z,96846.16
2023-01-15T02:57:00.219Z,96840.03
2023-01-15T02:59:33.780Z,96834.09
2023-01-15T03:02:03.228Z,96836.28
2023-01-15T03:04:41.806Z,96828.19
2023-01-15T03:07:23.516Z,96818.47
2023-01-15T03:09:50.613Z,96816.13
2023-01-15T03:12:27.923Z,96821.59
2023-01-15T03:15:07.069Z,96820.50
2023-01-15T03:17:47.550Z,96814.56
2023-01-15T03:20:23.630Z,96814.53
2023-01-15T03:23:00.589Z,96808.25
2023-01-15T03:25:33.276Z,96799.63
2023-01-15T03:28:03.087Z,96792.97
2023-01-15T03:30:30.108Z,96779.78
2023-01-15T03:32:57.189Z,96785.78
2023-01-15T03:35:44.885Z,96794.75
2023-01-15T03:38:13.008Z,96780.34
2023-01-15T03:40:53.026Z,96780.00
2023-01-15T03:43:42.761Z,96767.53
2023-01-15T03:46:21.746Z,96765.34
2023-01-15T03:49:33.349Z,96763.75
2023-01-15T03:52:13.699Z,96758.69
2023-01-15T03:55:00.430Z,96768.94
2023-01-15T03:58:04.957Z,96775.78
2023-01-15T04:00:39.081Z,96784.59
2023-01-15T04:03:08.707Z,96776.47
2023-01-15T04:05:37.780Z,96777.03
2023-01-15T04:08:05.261Z,96782.63
2023-01-15T04:10:31.867Z,96779.91
2023-01-15T04:12:58.544Z,96773.97
2023-01-15T04:15:25.266Z,96786.09
2023-01-15T04:17:51.839Z,96791.69
2023-01-15T04:20:19.316Z,96804.88
2023-01-15T04:22:45.958Z,96813.34
2023-01-15T04:25:12.720Z,96819.81
2023-01-15T04:27:39.392Z,96819.66
2023-01-15T04:30:07.038Z,96815.09
2023-01-15T04:32:33.655Z,96816.38
2023-01-15T04:35:00.288Z,96820.50
2023-01-15T04:37:26.939Z,96834.22
2023-01-15T04:39:53.492Z,96845.97
2023-01-15T04:42:38.726Z,96847.78
2023-01-15T04:45:06.035Z,96832.81
2023-01-15T04:47:32.623Z,96835.56
2023-01-15T04:49:59.290Z,96831.25
2023-01-15T04:52:25.923Z,96814.81
2023-01-15T04:54:55.030Z,96834.16
2023-01-15T04:57:21.655Z,96825.81
2023-01-15T04:59:48.283Z,96808.25
2023-01-15T05:02:15.531Z,96764.38
2023-01-15T05:04:42.511Z,96729.72
2023-01-15T05:07:09.975Z,96692.91
2023-01-15T05:09:36.700Z,96716.66
2023-01-15T05:12:03.745Z,96712.00
2023-01-15T05:14:30.380Z,96717.47
2023-01-15T05:16:57.006Z,96703.75
2023-01-15T05:19:23.692Z,96691.88
2023-01-15T05:21:51.454Z,96676.22
2023-01-15T05:24:18.327Z,96673.16
2023-01-15T05:26:45.217Z,96658.34
2023-01-15T05:29:12.716Z,96655.09
2023-01-15T05:31:39.943Z,96671.31
2023-01-15T05:34:06.626Z,96671.31
2023-01-15T05:36:33.386Z,96659.63
2023-01-15T05:39:01.916Z,96664.84
2023-01-15T05:41:48.858Z,96661.94
2023-01-15T05:44:24.152Z,96660.50
2023-01-15T05:46:53.447Z,96655.25
2023-01-15T05:49:22.464Z,96648.22
2023-01-15T05:51:50.436Z,96634.88
2023-01-15T05:54:23.104Z,96621.19
2023-01-15T05:56:49.863Z,96627.50
2023-01-15T05:59:17.999Z,96630.78
2023-01-15T06:01:45.080Z,96620.84
2023-01-15T06:04:14.260Z,96614.91
2023-01-15T06:06:42.562Z,96598.81
2023-01-15T06:09:09.798Z,96590.19
2023-01-15T06:11:36.419Z,96577.38
2023-01-15T06:14:03.276Z,96571.03
2023-01-15T06:16:29.988Z,96563.44
2023-01-15T06:19:00.813Z,96561.28
2023-01-15T06:21:27.533Z,96554.09
2023-01-15T06:23:54.462Z,96548.66
2023-01-15T06:26:21.258Z,96542.72
2023-01-15T06:28:47.958Z,96530.66
2023-01-15T06:31:17.983Z,96529.03
2023-01-15T06:33:45.021Z,96533.72
2023-01-15T06:36:17.652Z,96531.72
2023-01-15T06:38:44.868Z,96526.69
2023-01-15T06:41:36.746Z,96519.66
2023-01-15T06:44:22.768Z,96534.25
2023-01-15T06:47:09.615Z,96536.97
2023-01-15T06:49:37.451Z,96534.97
2023-01-15T06:52:05.317Z,96531.00
2023-01-15T06:54:32.865Z,96529.56
2023-01-15T06:56:59.704Z,96560.03
2023-01-15T06:59:26.395Z,96541.09
2023-01-15T07:01:53.128Z,96514.25
2023-01-15T07:04:19.839Z,96531.72
2023-01-15T07:06:46.449Z,96543.63
2023-01-15T07:09:13.182Z,96541.09
2023-01-15T07:11:49.381Z,96528.31
2023-01-15T07:14:24.367Z,96516.56
2023-01-15T07:16:51.965Z,96522.88
2023-01-15T07:19:19.282Z,96546.34
2023-01-15T07:21:46.519Z,96544.34
2023-01-15T07:24:13.950Z,96529.19
2023-01-15T07:26:41.696Z,96524.50
2023-01-15T07:29:08.338Z,96521.41
2023-01-15T07:31:35.228Z,96538.38
2023-01-15T07:34:01.887Z,96535.66
2023-01-15T07:36:28.608Z,96552.81
2023-01-15T07:38:55.273Z,96558.41
2023-01-15T07:41:40.812Z,96539.50
2023-01-15T07:44:29.338Z,96549.03
2023-01-15T07:47:14.709Z,96559.13
2023-01-15T07:49:46.358Z,96593.59
2023-01-15T07:52:18.586Z,96573.94
2023-01-15T07:54:46.345Z,96567.06
2023-01-15T07:57:14.969Z,96587.81
2023-01-15T07:59:42.254Z,96584.41
2023-01-15T08:02:09.302Z,96576.47
2023-01-15T08:04:36.440Z,96591.97
2023-01-15T08:07:04.665Z,96622.66
2023-01-15T08:09:31.482Z,96584.75
2023-01-15T08:12:20.962Z,96610.34
2023-01-15T08:15:06.504Z,96603.16
2023-01-15T08:17:37.441Z,96625.16
2023-01-15T08:20:06.070Z,96617.03
2023-01-15T08:22:32.749Z,96611.63
2023-01-15T08:24:59.344Z,96602.97
2023-01-15T08:27:26.045Z,96626.06
2023-01-15T08:29:53.230Z,96593.38
2023-01-15T08:32:19.813Z,96593.22
2023-01-15T08:34:46.469Z,96603.50
2023-01-15T08:37:13.100Z,96580.25
2023-01-15T08:39:39.710Z,96600.63
2023-01-15T08:42:06.383Z,96586.91
2023-01-15T08:44:33.216Z,96588.16
2023-01-15T08:47:00.008Z,96579.28
2023-01-15T08:49:26.640Z,96592.28
2023-01-15T08:51:53.283Z,96583.63
2023-01-15T08:54:22.305Z,96591.00
2023-01-15T08:56:49.944Z,96591.19
2023-01-15T08:59:17.115Z,96580.69
2023-01-15T09:01:44.723Z,96576.34
2023-01-15T09:04:16.488Z,96566.91
2023-01-15T09:06:43.769Z,96573.75
2023-01-15T09:09:11.076Z,96569.63
2023-01-15T09:11:40.472Z,96565.66
2023-01-15T09:15:00.225Z,96572.91
2023-01-15T09:16:58.732Z,96571.50
2023-01-15T09:19:25.349Z,96569.47
2023-01-15T09:21:51.982Z,96565.84
2023-01-15T09:24:18.556Z,96559.31
2023-01-15T09:26:45.286Z,96564.72
2023-01-15T09:29:11.916Z,96560.94
2023-01-15T09:31:38.485Z,96552.44
2023-01-15T09:34:05.194Z,96553.31
2023-01-15T09:36:34.758Z,96545.16
2023-01-15T09:39:02.474Z,96545.91
2023-01-15T09:42:08.612Z,96544.09
2023-01-15T09:45:26.257Z,96543.31
2023-01-15T09:48:33.587Z,96537.91
2023-01-15T09:51:16.617Z,96522.38
2023-01-15T09:54:11.949Z,96530.00
2023-01-15T09:56:39.432Z,96530.72
2023-01-15T09:59:34.772Z,96518.94
2023-01-15T10:02:12.714Z,96517.56
2023-01-15T10:04:46.175Z,96512.69
2023-01-15T10:07:27.963Z,96522.78
2023-01-15T10:10:10.680Z,96534.13
2023-01-15T10:12:43.378Z,96522.41
2023-01-15T10:15:38.166Z,96510.84
2023-01-15T10:18:08.194Z,96514.97
2023-01-15T10:21:12.291Z,96512.22
2023-01-15T10:23:47.733Z,96505.13
2023-01-15T10:26:32.440Z,96517.97
2023-01-15T10:29:30.566Z,96505.13
2023-01-15T10:32:31.351Z,96507.06
2023-01-15T10:35:40.440Z,96492.09
2023-01-15T10:38:47.485Z,96479.25
2023-01-15T10:41:52.427Z,96477.31
2023-01-15T10:44:29.450Z,96465.84
2023-01-15T10:47:01.590Z,96468.78
2023-01-15T10:49:30.263Z,96449.03
2023-01-15T10:52:03.187Z,96447.94
2023-01-15T10:54:42.818Z,96431.44
2023-01-15T10:57:56.408Z,96425.22
2023-01-15T11:00:26.550Z,96417.25
2023-01-15T11:03:08.378Z,96425.88
2023-01-15T11:05:35.807Z,96413.13
2023-01-15T11:08:39.310Z,96414.63
2023-01-15T11:10:54.011Z,96402.84
2023-01-15T11:13:42.160Z,96408.41
2023-01-15T11:17:00.772Z,96417.06
2023-01-15T11:19:39.802Z,96415.69
2023-01-15T11:22:20.358Z,96421.41
2023-01-15T11:24:54.686Z,96423.41
2023-01-15T11:27:26.090Z,96423.22
2023-01-15T11:30:03.882Z,96401.00
2023-01-15T11:32:40.733Z,96404.28
2023-01-15T11:35:25.867Z,96377.63
2023-01-15T11:38:23.464Z,96377.78
2023-01-15T11:40:59.509Z,96387.28
2023-01-15T11:43:48.115Z,96374.03
2023-01-15T11:46:49.917Z,96368.28
2023-01-15T11:49:37.854Z,96383.13
2023-01-15T11:52:11.687Z,96402.19
2023-01-15T11:54:43.441Z,96401.47
2023-01-15T11:57:11.055Z,96384.94
2023-01-15T11:59:38.243Z,96386.59
2023-01-15T12:02:18.995Z,96380.63
2023-01-15T12:05:00.626Z,96382.53
2023-01-15T12:07:28.963Z,96379.38
2023-01-15T12:10:44.149Z,96398.34
2023-01-15T12:13:21.393Z,96388.84
2023-01-15T12:16:16.646Z,96395.56
2023-01-15T12:19:09.294Z,96407.59
2023-01-15T12:21:51.086Z,96425.03
2023-01-15T12:24:40.560Z,96418.44
2023-01-15T12:27:44.184Z,96412.25
2023-01-15T12:30:56.684Z,96409.84
2023-01-15T12:33:40.967Z,96405.81
2023-01-15T12:36:53.998Z,96415.22
2023-01-15T12:39:27.826Z,96444.97
2023-01-15T12:42:16.618Z,96441.50
2023-01-15T12:45:07.782Z,96440.78
2023-01-15T12:47:46.043Z,96445.25
2023-01-15T12:50:24.437Z,96448.31
2023-01-15T12:52:58.943Z,96453.63
2023-01-15T12:55:30.504Z,96455.63
2023-01-15T12:58:00.887Z,96461.19
2023-01-15T13:00:34.970Z,96479.69
2023-01-15T13:03:30.341Z,96490.03
2023-01-15T13:06:00.681Z,96487.47
2023-01-15T13:08:44.758Z,96518.06
2023-01-15T13:11:14.325Z,96536.59
2023-01-15T13:13:42.500Z,96551.94
2023-01-15T13:16:27.771Z,96584.66
2023-01-15T13:19:37.317Z,96599.38
2023-01-15T13:22:12.866Z,96608.78
2023-01-15T13:25:34.728Z,96624.53
2023-01-15T13:28:41.692Z,96644.41
2023-01-15T13:31:46.426Z,96660.34
2023-01-15T13:34:23.402Z,96675.75
2023-01-15T13:36:51.129Z,96690.91
2023-01-15T13:39:24.699Z,96705.19
2023-01-15T13:42:12.144Z,96720.25
2023-01-15T13:44:52.011Z,96735.97
2023-01-15T13:47:23.688Z,96754.41
2023-01-15T13:50:05.592Z,96757.09
2023-01-15T13:52:37.180Z,96765.25
2023-01-15T13:55:15.984Z,96782.97
2023-01-15T13:57:43.642Z,96803.91
2023-01-15T14:00:40.185Z,96805.16
2023-01-15T14:03:29.718Z,96820.34
2023-01-15T14:06:02.380Z,96831.03
2023-01-15T14:08:46.068Z,96838.97
2023-01-15T14:11:36.324Z,96839.34
2023-01-15T14:15:00.057Z,96860.66
2023-01-15T14:18:01.775Z,96855.44
2023-01-15T14:20:54.376Z,96868.41
2023-01-15T14:24:22.549Z,96869.16
2023-01-15T14:27:06.225Z,96893.19
2023-01-15T14:30:23.988Z,96897.19
2023-01-15T14:33:06.072Z,96906.38
2023-01-15T14:35:37.917Z,96916.16
2023-01-15T14:38:08.691Z,96923.72
2023-01-15T14:40:36.630Z,96925.00
2023-01-15T14:43:17.786Z,96920.31
2023-01-15T14:45:48.220Z,96929.69
2023-01-15T14:48:39.192Z,96942.53
2023-01-15T14:51:17.224Z,96943.06
2023-01-15T14:53:53.153Z,96955.53
2023-01-15T14:56:24.073Z,96951.03
2023-01-15T14:58:59.798Z,96955.19
2023-01-15T15:01:55.971Z,96961.53
2023-01-15T15:04:45.332Z,96955.19
2023-01-15T15:07:17.229Z,96973.59
2023-01-15T15:09:47.733Z,96962.75
2023-01-15T15:12:46.461Z,96978.84
2023-01-15T15:16:00.139Z,96986.06
2023-01-15T15:18:39.114Z,96984.41
2023-01-15T15:21:16.926Z,96992.16
2023-01-15T15:23:51.560Z,96989.59
2023-01-15T15:26:31.631Z,96986.00
2023-01-15T15:29:12.159Z,96989.94
2023-01-15T15:31:48.134Z,97000.44
2023-01-15T15:34:26.713Z,97008.94
2023-01-15T15:36:54.593Z,97004.22
2023-01-15T15:39:42.562Z,97015.00
2023-01-15T15:42:59.451Z,97014.53
2023-01-15T15:45:47.330Z,97023.50
2023-01-15T15:48:38.742Z,97023.72
2023-01-15T15:51:22.887Z,97016.66
2023-01-15T15:53:49.498Z,97035.44
2023-01-15T15:56:16.975Z,97024.97
2023-01-15T15:58:44.127Z,97043.41
2023-01-15T16:01:13.170Z,97035.81
2023-01-15T16:03:50.574Z,97048.06
2023-01-15T16:06:23.415Z,97050.00
2023-01-15T16:08:56.320Z,97051.13
2023-01-15T16:11:25.281Z,97044.81
2023-01-15T16:13:53.623Z,97043.47
2023-01-15T16:16:21.291Z,97054.47
2023-01-15T16:18:53.169Z,97059.72
2023-01-15T16:21:29.229Z,97055.56
2023-01-15T16:24:04.850Z,97061.88
2023-01-15T16:26:52.849Z,97056.47
2023-01-15T16:29:26.156Z,97059.16
2023-01-15T16:31:55.957Z,97061.19
2023-01-15T16:34:26.369Z,97069.13
2023-01-15T16:36:53.144Z,97072.38
2023-01-15T16:39:43.773Z,97074.19
2023-01-15T16:42:45.667Z,97079.03
2023-01-15T16:45:33.311Z,97083.97
2023-01-15T16:48:29.945Z,97092.44
2023-01-15T16:50:58.281Z,97087.53
2023-01-15T16:53:40.981Z,97091.66
2023-01-15T16:56:25.407Z,97088.03
2023-01-15T16:58:52.129Z,97085.13
2023-01-15T17:01:34.083Z,97088.03
2023-01-15T17:04:02.513Z,97082.41
2023-01-15T17:06:29.656Z,97085.44
2023-01-15T17:09:01.272Z,97090.75
2023-01-15T17:11:30.393Z,97098.84
2023-01-15T17:14:27.444Z,97089.13
2023-01-15T17:17:27.471Z,97061.09
2023-01-15T17:19:56.057Z,97068.47
2023-01-15T17:22:31.979Z,97076.75
2023-01-15T17:25:02.399Z,97083.28
2023-01-15T17:27:36.769Z,97098.09
2023-01-15T17:30:03.999Z,97091.69
2023-01-15T17:32:35.894Z,97100.88
2023-01-15T17:35:02.586Z,97108.59
2023-01-15T17:37:29.227Z,97110.59
2023-01-15T17:39:55.924Z,97115.41
2023-01-15T17:42:23.437Z,97115.22
2023-01-15T17:44:50.013Z,97121.03
2023-01-15T17:47:16.580Z,97101.28
2023-01-15T17:49:43.195Z,97100.03
2023-01-15T17:52:19.780Z,97110.25
2023-01-15T17:55:05.056Z,97109.47
2023-01-15T17:57:50.313Z,97093.94
2023-01-15T18:00:36.458Z,97104.50
2023-01-15T18:03:21.950Z,97114.75
2023-01-15T18:05:51.666Z,97121.28
2023-01-15T18:08:21.097Z,97114.75
2023-01-15T18:10:47.725Z,97116.06
2023-01-15T18:13:14.327Z,97111.03
2023-01-15T18:15:40.935Z,97105.06
2023-01-15T18:18:07.565Z,97112.63
2023-01-15T18:20:34.223Z,97117.50
2023-01-15T18:23:00.785Z,97114.41
2023-01-15T18:25:27.492Z,97115.47
2023-01-15T18:27:54.148Z,97129.22
2023-01-15T18:30:20.935Z,97120.09
2023-01-15T18:32:47.547Z,97112.09
2023-01-15T18:35:14.949Z,97118.38
2023-01-15T18:37:41.638Z,97109.47
2023-01-15T18:40:09.196Z,97117.44
2023-01-15T18:42:57.129Z,97112.75
2023-01-15T18:45:42.436Z,97109.88
2023-01-15T18:48:09.086Z,97113.38
2023-01-15T18:50:36.594Z,97112.25
2023-01-15T18:53:03.207Z,97117.72
2023-01-15T18:55:29.889Z,97120.63
2023-01-15T18:57:57.107Z,97121.53
2023-01-15T19:00:24.937Z,97133.56
2023-01-15T19:02:52.141Z,97126.44
2023-01-15T19:05:19.331Z,97132.38
2023-01-15T19:07:46.344Z,97131.78
2023-01-15T19:10:15.147Z,97121.88
2023-01-15T19:12:41.909Z,97124.34
2023-01-15T19:15:30.553Z,97135.50
2023-01-15T19:18:15.352Z,97142.34
2023-01-15T19:20:42.086Z,97135.31
2023-01-15T19:23:09.329Z,97141.75
2023-01-15T19:25:44.553Z,97140.16
2023-01-15T19:28:15.827Z,97133.19
2023-01-15T19:30:43.611Z,97133.56
2023-01-15T19:33:10.703Z,97130.97
2023-01-15T19:35:39.260Z,97129.66
2023-01-15T19:38:08.457Z,97140.16
2023-01-15T19:40:37.877Z,97134.16
2023-01-15T19:43:33.718Z,97126.75
2023-01-15T19:46:19.175Z,97126.56
2023-01-15T19:49:04.648Z,97117.94
2023-01-15T19:52:00.063Z,97123.00
2023-01-15T19:54:44.980Z,97115.88
2023-01-15T19:57:11.655Z,97109.38
2023-01-15T19:59:38.239Z,97112.78
2023-01-15T20:02:04.867Z,97107.94
2023-01-15T20:04:31.466Z,97108.94
2023-01-15T20:06:58.079Z,97116.59
2023-01-15T20:09:24.622Z,97107.38
2023-01-15T20:12:09.998Z,97107.31
2023-01-15T20:14:36.623Z,97103.53
2023-01-15T20:17:03.266Z,97090.91
2023-01-15T20:19:30.107Z,97098.94
2023-01-15T20:21:56.732Z,97094.25
2023-01-15T20:24:23.381Z,97094.50
2023-01-15T20:26:50.057Z,97093.72
2023-01-15T20:29:16.683Z,97095.50
2023-01-15T20:31:43.298Z,97089.00
2023-01-15T20:34:09.959Z,97091.97
2023-01-15T20:36:36.591Z,97079.06
2023-01-15T20:39:03.332Z,97075.81
2023-01-15T20:41:48.994Z,97074.31
2023-01-15T20:44:34.369Z,97075.03
2023-01-15T20:47:00.998Z,97074.97
2023-01-15T20:49:28.952Z,97072.50
2023-01-15T20:51:57.505Z,97063.28
2023-01-15T20:54:25.515Z,97065.25
2023-01-15T20:56:52.297Z,97071.38
2023-01-15T20:59:18.912Z,97067.41
2023-01-15T21:01:45.641Z,97071.53
2023-01-15T21:04:13.674Z,97060.72
2023-01-15T21:06:40.795Z,97069.22
2023-01-15T21:09:07.443Z,97071.72
2023-01-15T21:11:34.180Z,97061.63
2023-01-15T21:14:00.938Z,97060.78
2023-01-15T21:16:27.709Z,97060.91
2023-01-15T21:18:54.386Z,97046.56
2023-01-15T21:21:22.214Z,97051.19
2023-01-15T21:23:48.898Z,97045.72
2023-01-15T21:26:16.416Z,97047.53
2023-01-15T21:28:44.695Z,97042.03
2023-01-15T21:31:12.735Z,97038.41
2023-01-15T21:33:39.937Z,97045.09
2023-01-15T21:36:08.278Z,97042.16
2023-01-15T21:38:35.290Z,97036.44
2023-01-15T21:41:13.783Z,97038.19
2023-01-15T21:44:00.008Z,97033.66
2023-01-15T21:46:29.660Z,97032.13
2023-01-15T21:48:57.510Z,97025.66
2023-01-15T21:51:25.458Z,97022.38
2023-01-15T21:53:53.121Z,97018.34
2023-01-15T21:56:20.385Z,97011.50
2023-01-15T21:58:47.006Z,97017.75
2023-01-15T22:01:15.894Z,97012.66
2023-01-15T22:03:42.610Z,97001.19
2023-01-15T22:06:10.415Z,96996.78
2023-01-15T22:08:37.061Z,96994.53
2023-01-15T22:11:08.986Z,96990.53
2023-01-15T22:13:36.873Z,96988.34
2023-01-15T22:16:06.628Z,96987.09
2023-01-15T22:18:34.217Z,96967.44
2023-01-15T22:21:03.910Z,96972.72
2023-01-15T22:23:30.886Z,96970.75
2023-01-15T22:25:57.500Z,96975.28
2023-01-15T22:28:24.415Z,96981.56
2023-01-15T22:30:51.081Z,96973.44
2023-01-15T22:33:17.783Z,96975.81
2023-01-15T22:35:44.434Z,96970.63
2023-01-15T22:38:11.239Z,96960.31
2023-01-15T22:40:37.959Z,96962.50
2023-01-15T22:43:04.589Z,96953.84
2023-01-15T22:45:31.207Z,96949.50
2023-01-15T22:47:57.860Z,96949.88
2023-01-15T22:50:24.502Z,96953.13
2023-01-15T22:52:51.133Z,96940.47
2023-01-15T22:55:17.762Z,96937.91
2023-01-15T22:57:44.437Z,96941.88
2023-01-15T23:00:11.715Z,96929.91
2023-01-15T23:02:58.045Z,96928.88
2023-01-15T23:05:24.877Z,96930.31
2023-01-15T23:07:51.625Z,96912.13
2023-01-15T23:10:18.390Z,96917.72
2023-01-15T23:12:45.034Z,96909.22
2023-01-15T23:15:13.490Z,96894.66
2023-01-15T23:17:40.780Z,96894.84
2023-01-15T23:20:08.808Z,96885.19
2023-01-15T23:22:35.750Z,96882.00
2023-01-15T23:25:02.482Z,96878.91
2023-01-15T23:27:29.077Z,96876.03
2023-01-15T23:29:55.678Z,96877.47
2023-01-15T23:32:22.393Z,96867.25
2023-01-15T23:34:49.049Z,96864.13
2023-01-15T23:37:16.231Z,96868.09
2023-01-15T23:39:42.875Z,96869.84
2023-01-15T23:42:29.389Z,96864.38
2023-01-15T23:45:14.513Z,96858.84
2023-01-15T23:47:41.117Z,96854.50
2023-01-15T23:50:08.449Z,96853.81
2023-01-15T23:52:35.121Z,96841.94
2023-01-15T23:55:01.717Z,96838.66
2023-01-15T23:57:28.354Z,96840.63
2023-01-15T23:59:54.965Z,96830.53
